Terminal Aerodrome Forecast
Issued by NWS

Home | Current Version | Previous Version | Text Only | Print | Product List | Glossary On
Versions: 1 2 3 4 5 6 7 8 9 10 11 12 13 14 15 16
000
FTUS42 KTBW 222326
TAFPGD
TAF
KPGD 222326Z 2300/2324 20018G28KT P6SM VCTS SCT020CB BKN040
      TEMPO 2302/2306 3SM TSRA BKN020CB OVC030
     FM230600 25021G29KT P6SM VCSH SCT015 BKN030
     FM231200 27018G25KT P6SM SCT030 BKN040
     FM232100 29017G24KT P6SM FEW030 SCT060=

USA.gov is the U.S. government's official web portal to all federal, state and local government web resources and services.